Terminal Aerodrome Forecast
Issued by NWS

Home | Current Version | Previous Version | Text Only | Print | Product List | Glossary On
Versions: 1 2 3 4 5 6 7 8 9 10 11 12 13 14 15 16 17 18 19 20
000
FTUS43 KSGF 271120
TAFJLN
TAF
KJLN 271120Z 2712/2812 16008KT P6SM BKN025
     FM271900 19014G23KT P6SM BKN035
     FM272200 19012G19KT P6SM VCTS BKN040CB
      TEMPO 2723/2803 VRB25G35KT 2SM +TSRA BR OVC025CB
     FM280500 26005KT P6SM BKN020
     FM280800 31006KT P6SM BKN008=

USA.gov is the U.S. government's official web portal to all federal, state and local government web resources and services.